Time;durP1;ratioP1;P1;durP2;ratioP2;P2;SDS_P1;SDS_P2;PMS_P1;PMS_P2;Temp;Humidity;BMP_temperature;BMP_pressure;BME280_temperature;BME280_humidity;BME280_pressure;Samples;Min_cycle;Max_cycle;Signal;HPM_P1;HPM_P2
2021/11/08 00:01:24;;;;;;;6.80;4.90;;;;;;;6.11;71.33;96493.58;115876;1195;25114;-87
2021/11/08 00:03:55;;;;;;;7.10;4.50;;;;;;;6.11;71.26;96498.64;115847;1195;26186;-86
2021/11/08 00:06:26;;;;;;;7.30;5.10;;;;;;;6.12;71.33;96497.89;115859;1195;27512;-85
2021/11/08 00:08:57;;;;;;;8.20;4.90;;;;;;;6.11;71.34;96502.63;115873;1195;27525;-85
2021/11/08 00:11:28;;;;;;;6.40;4.70;;;;;;;6.10;71.42;96504.00;115887;1195;26744;-86
2021/11/08 00:13:57;;;;;;;;;;;;;;;6.11;71.61;96501.73;115875;1195;25449;-85
2021/11/08 00:16:33;;;;;;;5.00;3.00;;;;;;;6.10;71.63;96502.32;115853;1195;26158;-86
2021/11/08 00:19:19;;;;;;;7.30;4.70;;;;;;;6.10;71.47;96503.67;115862;1195;25628;-85
2021/11/08 00:21:51;;;;;;;8.50;5.00;;;;;;;6.12;71.56;96505.80;115864;1195;25833;-86
2021/11/08 00:24:24;;;;;;;6.00;4.10;;;;;;;6.10;71.60;96504.79;115883;1195;28813;-86
2021/11/08 00:26:55;;;;;;;7.20;4.80;;;;;;;6.09;71.64;96503.98;115791;1189;24992;-86
2021/11/08 00:29:26;;;;;;;7.20;5.00;;;;;;;6.07;71.84;96500.98;115708;1195;29315;-85
2021/11/08 00:31:55;;;;;;;;;;;;;;;6.05;71.87;96503.48;115795;1195;28438;-85
2021/11/08 00:34:26;;;;;;;7.40;4.00;;;;;;;6.04;71.63;96498.45;115834;1195;25183;-86
2021/11/08 00:36:56;;;;;;;8.60;5.20;;;;;;;6.04;71.82;96492.71;115835;1195;27378;-85
2021/11/08 00:39:28;;;;;;;10.20;5.90;;;;;;;6.02;72.00;96497.87;115818;1195;27136;-86
2021/11/08 00:41:58;;;;;;;9.90;6.00;;;;;;;6.00;71.88;96494.59;115754;1195;25196;-85
2021/11/08 00:44:27;;;;;;;;;;;;;;;5.98;72.13;96498.68;115775;1195;27442;-86
2021/11/08 00:46:58;;;;;;;9.60;5.80;;;;;;;5.96;72.07;96502.89;115785;1195;26061;-86
2021/11/08 00:49:30;;;;;;;5.90;3.90;;;;;;;5.95;72.20;96503.89;115737;1195;25365;-87
2021/11/08 00:52:00;;;;;;;9.50;5.60;;;;;;;5.95;72.31;96505.35;115761;1196;26231;-86
2021/11/08 00:54:30;;;;;;;;;;;;;;;5.96;72.29;96509.52;115760;1195;25463;-86
2021/11/08 00:57:01;;;;;;;7.80;5.00;;;;;;;5.96;72.25;96511.45;115709;1196;27201;-86
2021/11/08 00:59:32;;;;;;;6.60;4.70;;;;;;;5.98;72.25;96512.48;115794;1196;24155;-86
2021/11/08 01:02:01;;;;;;;;;;;;;;;5.99;72.14;96517.06;115770;1196;27322;-86
2021/11/08 01:04:32;;;;;;;10.70;5.80;;;;;;;5.98;72.53;96521.63;115761;1196;27509;-85
2021/11/08 01:07:02;;;;;;;;;;;;;;;5.98;72.47;96527.69;115768;1195;26754;-86
2021/11/08 01:09:33;;;;;;;7.40;5.00;;;;;;;5.97;72.62;96525.56;115750;1195;26511;-86
2021/11/08 01:12:04;;;;;;;8.40;5.50;;;;;;;5.95;72.55;96528.25;115745;1196;24948;-86
2021/11/08 01:14:35;;;;;;;7.50;4.90;;;;;;;5.95;72.65;96532.66;115702;1196;25426;-86
2021/11/08 01:17:07;;;;;;;6.30;3.70;;;;;;;5.97;72.88;96530.67;115761;1195;24044;-86
2021/11/08 01:19:38;;;;;;;8.50;4.90;;;;;;;5.98;72.86;96527.63;115867;1195;26867;-86
2021/11/08 01:22:16;;;;;;;7.50;4.80;;;;;;;5.99;72.90;96537.79;115739;1196;24366;-86
2021/11/08 01:24:53;;;;;;;6.30;4.50;;;;;;;5.98;72.91;96536.69;115848;1196;25222;-86
2021/11/08 01:27:32;;;;;;;6.80;3.40;;;;;;;5.95;73.25;96544.25;115804;1195;24263;-86
2021/11/08 01:30:06;;;;;;;9.20;4.40;;;;;;;5.92;73.24;96548.17;115736;1196;27062;-86
2021/11/08 01:32:37;;;;;;;7.00;4.70;;;;;;;5.91;73.39;96543.52;115732;1195;25948;-86
2021/11/08 01:35:07;;;;;;;;;;;;;;;5.90;73.56;96549.06;115766;1196;27184;-85
2021/11/08 01:37:37;;;;;;;7.40;4.40;;;;;;;5.90;73.62;96552.10;115850;1195;28437;-85
2021/11/08 01:40:10;;;;;;;7.80;4.90;;;;;;;5.87;73.65;96556.70;115799;1195;24807;-85
2021/11/08 01:42:40;;;;;;;6.00;4.60;;;;;;;5.88;73.77;96556.92;115764;1195;29472;-86
2021/11/08 01:45:09;;;;;;;;;;;;;;;5.88;73.71;96560.19;115785;1196;26755;-86
2021/11/08 01:47:40;;;;;;;7.20;4.20;;;;;;;5.89;73.96;96563.30;115817;1196;31352;-86
2021/11/08 01:50:09;;;;;;;;;;;;;;;5.88;73.90;96563.88;115864;1195;26130;-86
2021/11/08 01:52:40;;;;;;;7.50;4.30;;;;;;;5.88;74.06;96569.18;115848;1196;28096;-86
2021/11/08 01:55:09;;;;;;;;;;;;;;;5.88;73.88;96574.86;115772;1196;25088;-86
2021/11/08 01:57:41;;;;;;;7.30;4.10;;;;;;;5.87;74.08;96579.48;115751;1195;29328;-86
2021/11/08 02:00:15;;;;;;;4.10;3.10;;;;;;;5.88;74.02;96578.55;115696;1196;25687;-86
2021/11/08 02:02:46;;;;;;;7.50;4.80;;;;;;;5.88;74.07;96586.55;115776;1196;25710;-86
2021/11/08 02:05:17;;;;;;;7.30;4.30;;;;;;;5.89;74.16;96584.25;115772;1196;24956;-86
2021/11/08 02:07:49;;;;;;;7.50;4.40;;;;;;;5.90;74.35;96584.42;115724;1182;25492;-87
2021/11/08 02:10:21;;;;;;;6.20;3.60;;;;;;;5.90;74.17;96588.70;115771;1195;28122;-86
2021/11/08 02:12:52;;;;;;;5.80;4.10;;;;;;;5.90;74.25;96591.36;115735;1195;25768;-85
2021/11/08 02:15:23;;;;;;;6.40;3.00;;;;;;;5.89;74.23;96595.30;115775;1195;24378;-85
2021/11/08 02:17:52;;;;;;;;;;;;;;;5.89;74.20;96595.71;115766;1195;25433;-85
2021/11/08 02:20:25;;;;;;;8.70;4.80;;;;;;;5.90;74.34;96590.85;115764;1195;25150;-85
2021/11/08 02:23:00;;;;;;;7.40;4.50;;;;;;;5.89;74.38;96596.03;115777;1195;29314;-85
2021/11/08 02:25:34;;;;;;;8.10;5.10;;;;;;;5.88;74.24;96594.17;115731;1196;25808;-86
2021/11/08 02:28:05;;;;;;;6.30;4.00;;;;;;;5.84;74.29;96591.89;115731;1196;24612;-86
2021/11/08 02:30:38;;;;;;;6.80;4.20;;;;;;;5.81;74.23;96593.81;115801;1189;24340;-86
2021/11/08 02:33:12;;;;;;;5.70;4.10;;;;;;;5.79;74.28;96592.47;115841;1196;25261;-86
2021/11/08 02:35:44;;;;;;;6.70;4.20;;;;;;;5.77;74.34;96590.34;115734;1196;25845;-86
2021/11/08 02:38:19;;;;;;;6.00;4.10;;;;;;;5.75;74.33;96587.62;115765;1190;27462;-85
2021/11/08 02:40:52;;;;;;;5.30;3.50;;;;;;;5.75;74.45;96592.36;115678;1196;43078;-85
2021/11/08 02:43:25;;;;;;;7.30;4.60;;;;;;;5.76;74.62;96592.89;115742;1196;25135;-85
2021/11/08 02:46:04;;;;;;;6.40;4.20;;;;;;;5.76;74.73;96598.16;115830;1196;29590;-86
2021/11/08 02:48:36;;;;;;;7.80;4.60;;;;;;;5.76;74.66;96609.20;115740;1190;28841;-86
2021/11/08 02:51:12;;;;;;;7.10;4.30;;;;;;;5.77;74.52;96605.87;115718;1196;27096;-86
2021/11/08 02:53:45;;;;;;;6.30;3.60;;;;;;;5.79;74.59;96610.40;115820;1195;28992;-86
2021/11/08 02:56:16;;;;;;;7.20;4.30;;;;;;;5.78;74.66;96606.14;115955;1195;26434;-87
2021/11/08 02:58:47;;;;;;;6.30;4.40;;;;;;;5.77;74.48;96601.17;115827;1189;24703;-86
2021/11/08 03:01:21;;;;;;;6.70;4.10;;;;;;;5.75;74.73;96608.98;115871;1196;24263;-86
2021/11/08 03:03:55;;;;;;;7.60;4.10;;;;;;;5.74;74.44;96608.70;115771;1195;25013;-86
2021/11/08 03:06:30;;;;;;;10.00;3.40;;;;;;;5.72;74.67;96617.31;115824;1196;24558;-86
2021/11/08 03:09:09;;;;;;;6.60;4.40;;;;;;;5.71;74.74;96619.05;115726;1196;26501;-86
2021/11/08 03:11:40;;;;;;;5.10;2.90;;;;;;;5.71;74.63;96612.99;115804;1196;25102;-86
2021/11/08 03:14:14;;;;;;;6.20;4.40;;;;;;;5.73;74.91;96612.48;115739;1195;27287;-86
2021/11/08 03:16:47;;;;;;;5.30;3.90;;;;;;;5.73;75.05;96617.80;115880;1195;26424;-85
2021/11/08 03:19:23;;;;;;;6.50;3.70;;;;;;;5.74;74.88;96615.80;115812;1196;25193;-86
2021/11/08 03:21:57;;;;;;;7.00;4.20;;;;;;;5.76;74.91;96613.51;115779;1196;29826;-85
2021/11/08 03:24:38;;;;;;;6.30;4.30;;;;;;;5.76;75.04;96618.24;115759;1190;27318;-86
2021/11/08 03:27:14;;;;;;;6.90;3.70;;;;;;;5.74;75.18;96621.96;115857;1195;27323;-86
2021/11/08 03:29:46;;;;;;;5.10;3.60;;;;;;;5.73;75.01;96621.07;115839;1181;38300;-85
2021/11/08 03:32:18;;;;;;;6.20;4.40;;;;;;;5.70;75.04;96620.24;115794;1196;24430;-86
2021/11/08 03:34:55;;;;;;;6.50;4.00;;;;;;;5.69;75.05;96625.29;115894;1195;27311;-84
2021/11/08 03:37:27;;;;;;;5.60;2.80;;;;;;;5.66;75.03;96620.79;115696;1189;41919;-86
2021/11/08 03:39:58;;;;;;;3.50;2.60;;;;;;;5.64;75.28;96630.48;115757;1195;27073;-86
2021/11/08 03:42:29;;;;;;;6.10;3.30;;;;;;;5.61;75.49;96627.66;115819;1189;25994;-87
2021/11/08 03:44:59;;;;;;;6.40;3.40;;;;;;;5.61;75.66;96622.45;115742;1196;37132;-86
2021/11/08 03:47:31;;;;;;;7.30;4.30;;;;;;;5.65;75.68;96633.50;115718;1196;29660;-86
2021/11/08 03:50:02;;;;;;;5.40;3.20;;;;;;;5.65;75.73;96630.26;115744;1196;25268;-86
2021/11/08 03:52:33;;;;;;;6.50;4.10;;;;;;;5.64;75.75;96636.39;115754;1196;27745;-86
2021/11/08 03:55:04;;;;;;;5.80;3.30;;;;;;;5.63;75.68;96633.46;115665;1196;27725;-86
2021/11/08 03:57:35;;;;;;;4.40;2.80;;;;;;;5.63;75.89;96639.77;115754;1196;25398;-86
2021/11/08 04:00:04;;;;;;;;;;;;;;;5.62;75.90;96641.34;115886;1196;25720;-85
2021/11/08 04:02:35;;;;;;;4.90;3.50;;;;;;;5.58;75.97;96641.61;115780;1195;26431;-85
2021/11/08 04:05:06;;;;;;;4.60;3.50;;;;;;;5.53;75.90;96642.77;115743;1195;26219;-86
2021/11/08 04:07:38;;;;;;;6.90;3.50;;;;;;;5.49;76.07;96645.04;115791;1190;28474;-85
2021/11/08 04:10:11;;;;;;;7.20;3.90;;;;;;;5.46;76.37;96641.88;115767;1195;26249;-85
2021/11/08 04:12:42;;;;;;;5.30;3.10;;;;;;;5.44;76.54;96640.88;115752;1196;24850;-85
2021/11/08 04:15:16;;;;;;;5.10;3.70;;;;;;;5.42;76.72;96637.70;115715;1196;25930;-86
2021/11/08 04:17:48;;;;;;;7.80;4.00;;;;;;;5.35;76.62;96633.20;115774;1196;43830;-86
2021/11/08 04:20:23;;;;;;;3.10;2.30;;;;;;;5.30;76.87;96623.52;115713;1196;28709;-85
2021/11/08 04:22:56;;;;;;;7.60;3.50;;;;;;;5.29;77.22;96610.14;115843;1195;25326;-86
2021/11/08 04:25:27;;;;;;;4.30;2.40;;;;;;;5.30;77.26;96611.20;115818;1196;26691;-85
2021/11/08 04:27:58;;;;;;;4.40;3.20;;;;;;;5.29;77.61;96615.20;115734;1196;27026;-86
2021/11/08 04:30:31;;;;;;;4.30;2.80;;;;;;;5.26;77.47;96612.21;115689;1196;26618;-85
2021/11/08 04:33:16;;;;;;;6.20;2.40;;;;;;;5.26;77.96;96610.59;115775;1195;24509;-86
2021/11/08 04:35:56;;;;;;;6.10;3.70;;;;;;;5.24;78.05;96611.92;115898;1195;25208;-86
2021/11/08 04:38:41;;;;;;;6.10;3.00;;;;;;;5.21;77.97;96620.77;115781;1195;24736;-86
2021/11/08 04:41:19;;;;;;;4.80;3.30;;;;;;;5.17;78.06;96631.01;115766;1195;26213;-86
2021/11/08 04:44:01;;;;;;;3.60;2.70;;;;;;;5.11;77.79;96633.10;115789;1195;25485;-85
2021/11/08 04:49:39;;;;;;;5.80;2.80;;;;;;;5.07;78.30;96634.52;115777;1195;25928;-86
2021/11/08 04:52:23;;;;;;;7.10;4.10;;;;;;;5.03;78.45;96636.45;115710;1195;24847;-86
2021/11/08 04:55:00;;;;;;;6.60;4.30;;;;;;;5.00;78.51;96638.09;115692;1190;42833;-86
2021/11/08 04:58:04;;;;;;;4.60;3.20;;;;;;;4.99;78.67;96642.39;115642;1196;26806;-86
2021/11/08 05:23:43;;;;;;;4.50;3.40;;;;;;;5.03;78.51;96663.14;115759;1195;24786;-85
2021/11/08 05:31:52;;;;;;;;;;;;;;;4.92;78.79;96675.26;115730;1195;27331;-85
2021/11/08 05:34:22;;;;;;;;;;;;;;;4.88;78.76;96683.20;115753;1195;30934;-86
2021/11/08 05:36:52;;;;;;;5.00;3.70;;;;;;;4.83;78.74;96683.70;115784;1195;27085;-85
2021/11/08 05:39:23;;;;;;;5.60;3.60;;;;;;;4.79;78.61;96688.36;115729;1195;26634;-85
2021/11/08 05:41:55;;;;;;;5.40;3.90;;;;;;;4.76;78.86;96691.16;115780;1195;27891;-85
2021/11/08 05:44:26;;;;;;;5.80;3.90;;;;;;;4.80;79.12;96695.42;115776;1195;29193;-85
2021/11/08 05:46:56;;;;;;;6.40;4.20;;;;;;;4.81;78.96;96696.77;115725;1195;28653;-86
2021/11/08 05:49:27;;;;;;;4.90;3.70;;;;;;;4.82;78.79;96699.08;115754;1195;25084;-85
2021/11/08 05:51:58;;;;;;;5.80;4.00;;;;;;;4.83;78.52;96706.93;115735;1195;25479;-86
2021/11/08 05:54:29;;;;;;;6.10;4.20;;;;;;;4.85;78.53;96713.88;115762;1195;24089;-85
2021/11/08 05:57:19;;;;;;;6.80;3.50;;;;;;;4.86;78.52;96719.16;115731;1195;25099;-85
2021/11/08 06:00:18;;;;;;;7.00;3.80;;;;;;;4.90;78.21;96719.52;115717;1195;26424;-85
2021/11/08 06:50:46;;;;;;;5.70;4.40;;;;;;;6.32;76.34;96752.73;115542;1198;23768;-85
2021/11/08 06:53:18;;;;;;;;;;;;;;;6.73;75.78;96752.98;115707;1196;25222;-85
2021/11/08 06:55:51;;;;;;;7.00;4.50;;;;;;;7.06;75.21;96758.96;115747;1190;25450;-84
2021/11/08 06:58:22;;;;;;;3.90;3.40;;;;;;;7.54;74.62;96760.35;115732;1196;25335;-84
2021/11/08 07:00:54;;;;;;;6.20;3.80;;;;;;;8.09;73.84;96763.33;115777;1181;25521;-84
2021/11/08 07:03:25;;;;;;;6.00;3.60;;;;;;;8.58;72.71;96766.58;115770;1189;25103;-85
2021/11/08 07:05:56;;;;;;;3.90;3.10;;;;;;;8.93;71.42;96765.30;115755;1195;25161;-84
2021/11/08 07:08:27;;;;;;;5.50;3.00;;;;;;;9.22;70.57;96759.97;115784;1190;26851;-84
2021/11/08 07:10:56;;;;;;;;;;;;;;;9.56;69.86;96761.67;115767;1195;25316;-84
2021/11/08 07:13:27;;;;;;;6.70;3.10;;;;;;;10.09;69.35;96764.34;115739;1196;25049;-84
2021/11/08 07:15:57;;;;;;;4.90;3.10;;;;;;;10.50;67.87;96766.67;115769;1190;24248;-85
2021/11/08 07:18:28;;;;;;;3.90;2.70;;;;;;;10.74;66.76;96771.95;115729;1195;25270;-84
2021/11/08 07:20:59;;;;;;;5.20;3.00;;;;;;;10.82;65.76;96777.63;115705;1196;25217;-84
2021/11/08 07:23:30;;;;;;;5.20;3.10;;;;;;;11.12;65.07;96782.30;115741;1195;24990;-84
2021/11/08 07:26:01;;;;;;;5.10;3.40;;;;;;;11.40;63.93;96784.79;115777;1195;28526;-84
2021/11/08 07:28:31;;;;;;;5.50;2.60;;;;;;;11.48;62.93;96785.45;115781;1195;23920;-83
2021/11/08 07:31:03;;;;;;;4.10;2.80;;;;;;;11.16;61.83;96791.08;115753;1196;25086;-84
2021/11/08 07:33:34;;;;;;;4.40;2.80;;;;;;;11.04;61.74;96794.40;115743;1196;24284;-84
2021/11/08 07:36:03;;;;;;;;;;;;;;;10.70;61.11;96794.45;115803;1195;26528;-84
2021/11/08 07:38:35;;;;;;;4.40;2.80;;;;;;;10.59;61.07;96790.70;115789;1195;24825;-85
2021/11/08 07:41:09;;;;;;;4.40;2.20;;;;;;;10.45;60.86;96794.54;115765;1196;24781;-83
2021/11/08 07:43:41;;;;;;;5.20;2.80;;;;;;;10.20;60.38;96793.82;115847;1196;25017;-85
2021/11/08 07:46:12;;;;;;;3.70;2.60;;;;;;;9.50;60.82;96804.14;115807;1195;24710;-85
2021/11/08 07:48:41;;;;;;;;;;;;;;;9.32;61.94;96806.80;115826;1190;23812;-85
2021/11/08 07:51:15;;;;;;;5.20;3.10;;;;;;;9.41;62.46;96809.60;115783;1192;22785;-85
2021/11/08 07:53:48;;;;;;;4.60;2.70;;;;;;;10.00;62.60;96810.40;115883;1195;23613;-84
2021/11/08 07:56:19;;;;;;;4.40;2.50;;;;;;;10.35;61.78;96818.80;115911;1194;23815;-84
2021/11/08 07:58:49;;;;;;;19.50;7.70;;;;;;;10.64;61.33;96820.70;115705;1196;24132;-83
2021/11/08 08:01:20;;;;;;;6.40;3.60;;;;;;;10.61;59.77;96822.19;115696;1196;27399;-84
2021/11/08 08:03:51;;;;;;;5.70;2.70;;;;;;;10.61;60.42;96830.20;115821;1195;25032;-84
2021/11/08 08:06:22;;;;;;;5.70;3.50;;;;;;;10.85;59.89;96832.67;115810;1195;25480;-84
2021/11/08 08:08:53;;;;;;;5.00;2.80;;;;;;;10.23;59.35;96839.75;115716;1196;25645;-84
2021/11/08 08:11:24;;;;;;;5.80;3.20;;;;;;;9.59;60.22;96845.20;115783;1190;24987;-83
2021/11/08 08:13:55;;;;;;;5.80;2.90;;;;;;;9.04;60.82;96848.13;115773;1195;24467;-83
2021/11/08 08:16:26;;;;;;;6.70;3.20;;;;;;;8.60;61.56;96851.09;115794;1196;26663;-84
2021/11/08 08:18:57;;;;;;;7.10;3.00;;;;;;;8.16;62.25;96852.02;115866;1195;27621;-84
2021/11/08 08:21:28;;;;;;;6.00;3.30;;;;;;;7.81;63.23;96852.82;115842;1195;26895;-84
2021/11/08 08:24:02;;;;;;;6.60;3.00;;;;;;;7.64;64.06;96860.94;115832;1189;26460;-85
2021/11/08 08:26:36;;;;;;;6.30;3.30;;;;;;;7.51;64.47;96859.58;115677;1196;35475;-85
2021/11/08 08:29:09;;;;;;;4.40;2.80;;;;;;;7.42;65.03;96867.77;115769;1195;29700;-85
2021/11/08 08:31:43;;;;;;;5.80;3.40;;;;;;;7.31;65.37;96868.52;115738;1195;31672;-86
2021/11/08 08:34:15;;;;;;;7.30;3.00;;;;;;;7.28;65.85;96868.29;115717;1196;30761;-86
2021/11/08 08:36:48;;;;;;;4.60;3.10;;;;;;;7.40;66.11;96871.20;115888;1196;28593;-86
2021/11/08 08:39:20;;;;;;;7.60;3.30;;;;;;;7.41;66.09;96878.21;115713;1196;24653;-86
2021/11/08 08:41:51;;;;;;;5.70;3.10;;;;;;;7.31;66.18;96879.83;115686;1196;26748;-84
2021/11/08 08:44:22;;;;;;;6.80;3.20;;;;;;;7.27;66.44;96884.31;115703;1196;29701;-85
2021/11/08 08:46:54;;;;;;;4.60;2.80;;;;;;;7.25;66.64;96886.94;115801;1195;25265;-86
2021/11/08 08:49:25;;;;;;;6.60;2.90;;;;;;;7.32;66.81;96887.86;115757;1195;25568;-85
2021/11/08 08:51:55;;;;;;;6.00;2.90;;;;;;;7.33;66.97;96884.33;115674;1196;27563;-85
2021/11/08 08:54:26;;;;;;;5.50;2.90;;;;;;;7.33;66.82;96887.70;115838;1196;26674;-85
2021/11/08 08:56:58;;;;;;;3.60;2.90;;;;;;;7.32;66.88;96892.27;115817;1196;25483;-86
2021/11/08 08:59:30;;;;;;;4.30;2.40;;;;;;;7.24;66.41;96894.52;115849;1196;25419;-85
2021/11/08 09:02:01;;;;;;;4.80;2.40;;;;;;;7.19;66.35;96897.81;115874;1196;26445;-85
2021/11/08 09:04:32;;;;;;;3.30;1.80;;;;;;;7.18;65.99;96899.90;115820;1190;27226;-85
2021/11/08 09:07:03;;;;;;;2.40;1.70;;;;;;;7.09;65.20;96900.45;115828;1181;26756;-85
2021/11/08 09:09:34;;;;;;;2.90;1.90;;;;;;;7.03;65.23;96906.12;115798;1194;25179;-86
2021/11/08 09:12:05;;;;;;;3.10;2.10;;;;;;;6.98;65.36;96909.29;115709;1195;25624;-85
2021/11/08 09:14:37;;;;;;;3.80;1.70;;;;;;;6.97;65.28;96913.23;115778;1195;25428;-85
2021/11/08 09:17:09;;;;;;;4.90;1.80;;;;;;;6.95;65.33;96914.80;115809;1195;26155;-86
2021/11/08 09:19:40;;;;;;;7.20;2.50;;;;;;;6.94;65.43;96918.32;115681;1196;34710;-87
2021/11/08 09:22:13;;;;;;;4.30;2.50;;;;;;;6.95;65.59;96921.06;115759;1196;26571;-85
2021/11/08 09:24:44;;;;;;;8.10;2.50;;;;;;;6.97;65.76;96925.63;115764;1190;27183;-86
2021/11/08 09:27:15;;;;;;;5.00;2.30;;;;;;;7.02;65.80;96930.64;115770;1196;24711;-86
2021/11/08 09:29:46;;;;;;;4.70;2.20;;;;;;;7.04;65.75;96933.45;115793;1196;24993;-86
2021/11/08 09:32:17;;;;;;;6.50;2.50;;;;;;;7.03;65.80;96937.38;115822;1190;24772;-86
2021/11/08 09:34:48;;;;;;;6.50;2.90;;;;;;;7.04;65.74;96932.19;115925;1191;25144;-86
2021/11/08 09:37:19;;;;;;;8.30;3.40;;;;;;;7.06;65.72;96931.95;115834;1195;25383;-86
2021/11/08 09:39:51;;;;;;;4.60;1.90;;;;;;;7.06;65.59;96929.27;115698;1196;26213;-85
2021/11/08 09:42:22;;;;;;;4.30;2.20;;;;;;;7.01;65.02;96927.56;115814;1195;25650;-86
2021/11/08 09:44:54;;;;;;;2.90;2.20;;;;;;;6.99;65.41;96928.00;115729;1195;24547;-86
2021/11/08 09:47:25;;;;;;;4.30;2.20;;;;;;;7.03;65.84;96931.95;115753;1195;28614;-86
2021/11/08 09:50:02;;;;;;;2.90;1.80;;;;;;;7.09;65.82;96928.61;115739;1195;29076;-86
2021/11/08 09:52:37;;;;;;;3.40;2.10;;;;;;;7.11;65.26;96925.67;115767;1189;28468;-86
2021/11/08 09:55:12;;;;;;;4.80;2.20;;;;;;;7.12;65.65;96933.32;115774;1195;27325;-86
2021/11/08 09:57:43;;;;;;;5.30;2.80;;;;;;;7.14;65.55;96930.33;115689;1196;24811;-85
2021/11/08 10:00:22;;;;;;;5.10;2.50;;;;;;;7.13;65.70;96931.11;115836;1195;28786;-84
2021/11/08 10:02:57;;;;;;;4.90;2.20;;;;;;;7.13;65.74;96932.33;115736;1195;26638;-85
2021/11/08 10:05:32;;;;;;;4.50;2.50;;;;;;;7.12;65.97;96932.80;115739;1195;24745;-85
2021/11/08 10:08:03;;;;;;;3.80;2.60;;;;;;;7.16;66.06;96924.91;115766;1196;28060;-85
2021/11/08 10:10:34;;;;;;;2.60;1.90;;;;;;;7.18;66.00;96928.63;115778;1195;24847;-85
2021/11/08 10:13:09;;;;;;;5.80;2.70;;;;;;;7.18;65.87;96925.80;115752;1195;25022;-85
2021/11/08 10:15:42;;;;;;;5.40;3.10;;;;;;;7.15;65.75;96913.84;115781;1195;24450;-85
2021/11/08 10:18:15;;;;;;;4.20;2.50;;;;;;;7.19;66.13;96915.47;115782;1195;27149;-85
2021/11/08 10:20:48;;;;;;;5.90;3.10;;;;;;;7.25;66.11;96914.84;115859;1195;23998;-85
2021/11/08 10:23:24;;;;;;;8.60;3.40;;;;;;;7.27;66.28;96916.59;115874;1195;23668;-85
2021/11/08 10:25:55;;;;;;;5.50;2.70;;;;;;;7.34;66.05;96911.82;115771;1195;24130;-84
2021/11/08 10:28:28;;;;;;;5.90;2.90;;;;;;;7.36;65.69;96911.41;115747;1195;24366;-84
2021/11/08 10:31:01;;;;;;;6.10;3.10;;;;;;;7.45;65.75;96908.38;115765;1196;24942;-85
2021/11/08 10:33:34;;;;;;;6.90;2.50;;;;;;;7.54;65.67;96907.14;115726;1195;24507;-85
2021/11/08 10:36:12;;;;;;;2.80;2.30;;;;;;;7.58;65.16;96903.20;115764;1195;23307;-83
2021/11/08 10:38:45;;;;;;;6.90;2.80;;;;;;;7.60;65.04;96900.39;115788;1195;24478;-83
2021/11/08 10:41:19;;;;;;;5.80;2.90;;;;;;;7.62;64.87;96896.77;115794;1195;24686;-85
2021/11/08 10:43:53;;;;;;;5.60;2.60;;;;;;;7.70;64.84;96891.12;115808;1195;24020;-85
2021/11/08 10:46:28;;;;;;;6.30;2.70;;;;;;;7.73;64.34;96891.30;115776;1195;25354;-84
2021/11/08 10:49:04;;;;;;;2.70;1.60;;;;;;;7.65;63.95;96893.31;115721;1196;25482;-84
2021/11/08 10:51:37;;;;;;;6.10;2.00;;;;;;;7.59;63.83;96889.86;115735;1189;26426;-86
2021/11/08 10:54:09;;;;;;;3.50;2.30;;;;;;;7.55;63.85;96890.36;115757;1196;24059;-84
2021/11/08 10:56:43;;;;;;;5.80;2.90;;;;;;;7.55;63.93;96882.86;115808;1190;25621;-84
2021/11/08 10:59:17;;;;;;;5.90;3.10;;;;;;;7.71;63.95;96885.23;115759;1195;23854;-85
2021/11/08 11:01:51;;;;;;;5.20;2.00;;;;;;;8.08;63.91;96885.05;115859;1195;26413;-84
2021/11/08 11:04:32;;;;;;;4.20;1.90;;;;;;;8.25;63.04;96883.50;115799;1195;24418;-84
2021/11/08 11:07:04;;;;;;;2.30;1.80;;;;;;;8.35;62.33;96890.49;115724;1195;30437;-84
2021/11/08 11:09:38;;;;;;;2.60;1.80;;;;;;;8.38;61.55;96886.88;115752;1196;25931;-83
2021/11/08 11:12:14;;;;;;;4.00;2.70;;;;;;;8.42;60.98;96897.08;115760;1180;25210;-84
2021/11/08 11:14:47;;;;;;;3.80;1.90;;;;;;;8.27;60.52;96894.20;115649;1190;36552;-84
2021/11/08 11:17:21;;;;;;;4.10;1.70;;;;;;;8.13;60.64;96890.70;115787;1196;24947;-85
2021/11/08 11:19:53;;;;;;;5.30;1.80;;;;;;;8.05;60.76;96896.80;115682;1196;24878;-84
2021/11/08 11:22:25;;;;;;;4.10;1.50;;;;;;;7.99;60.02;96890.05;115790;1195;24292;-84
2021/11/08 11:24:57;;;;;;;3.80;1.80;;;;;;;7.92;60.23;96887.54;115742;1195;28109;-85
2021/11/08 11:27:37;;;;;;;4.50;1.40;;;;;;;7.92;60.37;96893.23;115747;1196;24788;-85
2021/11/08 11:30:16;;;;;;;3.70;1.40;;;;;;;7.96;60.50;96894.42;115765;1195;26609;-85
2021/11/08 11:32:58;;;;;;;3.30;1.70;;;;;;;7.96;59.99;96889.02;115833;1195;27663;-85
2021/11/08 11:35:31;;;;;;;7.10;1.50;;;;;;;7.90;59.60;96891.27;115801;1195;24539;-85
2021/11/08 11:38:05;;;;;;;4.70;2.10;;;;;;;7.87;59.84;96887.86;115772;1195;24887;-85
2021/11/08 11:40:40;;;;;;;4.20;1.80;;;;;;;7.87;60.13;96892.61;115829;1195;28335;-85
2021/11/08 11:43:14;;;;;;;5.60;2.10;;;;;;;7.91;60.36;96892.13;115755;1195;25411;-84
2021/11/08 11:45:51;;;;;;;5.30;2.30;;;;;;;7.93;60.68;96896.98;115777;1195;25220;-86
2021/11/08 11:48:25;;;;;;;6.00;2.00;;;;;;;7.96;60.74;96896.70;115850;1196;27444;-85
2021/11/08 11:50:56;;;;;;;7.70;2.80;;;;;;;7.92;60.70;96891.77;115843;1195;26294;-84
2021/11/08 11:53:29;;;;;;;7.80;3.30;;;;;;;7.85;60.79;96892.27;115797;1196;24927;-85
2021/11/08 11:56:00;;;;;;;7.00;3.20;;;;;;;7.86;60.91;96889.60;115770;1190;25672;-84
2021/11/08 11:58:31;;;;;;;4.10;2.00;;;;;;;8.16;60.87;96888.89;115729;1196;23293;-84
2021/11/08 12:01:04;;;;;;;2.90;1.60;;;;;;;8.53;60.11;96890.55;115741;1195;24252;-84
2021/11/08 12:03:36;;;;;;;7.20;2.50;;;;;;;8.76;59.10;96893.11;115778;1195;24694;-84
2021/11/08 12:06:11;;;;;;;4.50;1.50;;;;;;;8.79;58.94;96900.27;115772;1195;25738;-85
2021/11/08 12:08:44;;;;;;;5.50;1.70;;;;;;;8.91;57.83;96893.27;115792;1195;28205;-84
2021/11/08 12:11:15;;;;;;;6.50;1.50;;;;;;;8.99;57.73;96904.17;115652;1196;26781;-84
2021/11/08 12:14:00;;;;;;;3.20;1.70;;;;;;;8.83;57.67;96903.88;115822;1196;24838;-85
2021/11/08 12:16:33;;;;;;;3.20;2.20;;;;;;;8.63;57.87;96905.27;115711;1190;28362;-84
2021/11/08 12:19:05;;;;;;;2.10;1.40;;;;;;;8.48;57.81;96898.71;115766;1196;25616;-85
2021/11/08 12:21:37;;;;;;;3.30;1.70;;;;;;;8.34;58.08;96895.83;115803;1195;24967;-85
2021/11/08 12:24:21;;;;;;;3.40;1.00;;;;;;;8.27;58.52;96895.39;115763;1196;24999;-86
2021/11/08 12:27:08;;;;;;;7.00;1.90;;;;;;;8.19;58.35;96899.84;115769;1189;26618;-86
2021/11/08 12:29:51;;;;;;;4.40;1.60;;;;;;;8.15;59.07;96900.34;115731;1195;28127;-85
2021/11/08 12:32:23;;;;;;;4.30;1.80;;;;;;;8.14;58.87;96900.38;115824;1196;34757;-86
2021/11/08 12:34:55;;;;;;;3.00;2.10;;;;;;;8.10;59.07;96904.33;115772;1196;28435;-85
2021/11/08 12:37:37;;;;;;;5.70;1.50;;;;;;;8.10;59.43;96909.71;115780;1196;25366;-86
2021/11/08 12:40:13;;;;;;;5.20;2.20;;;;;;;8.07;59.52;96909.70;115778;1195;27190;-85
2021/11/08 12:42:46;;;;;;;4.50;2.00;;;;;;;8.03;59.67;96908.05;115650;1196;24120;-85
2021/11/08 12:45:24;;;;;;;3.10;1.30;;;;;;;8.06;59.88;96905.20;115816;1189;24073;-85
2021/11/08 12:48:11;;;;;;;4.70;1.80;;;;;;;8.03;59.64;96908.94;115738;1195;24914;-84
2021/11/08 12:50:53;;;;;;;5.10;2.60;;;;;;;7.97;59.67;96901.98;115813;1195;25681;-85
2021/11/08 12:53:28;;;;;;;7.10;2.70;;;;;;;7.97;59.93;96903.08;115759;1195;25209;-85
2021/11/08 12:56:02;;;;;;;5.60;3.00;;;;;;;8.01;60.23;96901.41;115759;1189;26284;-84
2021/11/08 12:58:44;;;;;;;4.60;2.20;;;;;;;8.08;60.20;96900.89;115740;1195;26361;-85
2021/11/08 13:01:19;;;;;;;3.30;1.40;;;;;;;8.14;59.87;96903.55;115738;1196;26419;-85
2021/11/08 13:04:05;;;;;;;4.80;2.20;;;;;;;8.19;59.74;96907.45;115901;1195;23876;-85
2021/11/08 13:06:37;;;;;;;4.90;2.50;;;;;;;8.37;59.84;96910.73;115890;1189;25256;-85
2021/11/08 13:09:19;;;;;;;4.50;1.90;;;;;;;8.50;59.68;96916.64;115794;1195;26139;-84
2021/11/08 13:11:52;;;;;;;2.90;1.80;;;;;;;8.55;59.21;96913.80;115931;1195;23775;-85
2021/11/08 13:14:29;;;;;;;5.20;2.10;;;;;;;8.47;59.12;96913.77;115850;1195;45133;-84
2021/11/08 13:17:12;;;;;;;4.00;2.20;;;;;;;8.35;59.32;96908.73;115862;1195;27650;-85
2021/11/08 13:19:50;;;;;;;5.30;2.70;;;;;;;8.31;59.16;96905.52;115743;1196;24608;-85
2021/11/08 13:22:26;;;;;;;6.60;3.00;;;;;;;8.24;59.42;96902.67;115773;1195;28385;-84
2021/11/08 13:25:45;;;;;;;4.90;2.50;;;;;;;8.16;59.43;96905.05;102038;1342;545625;-84